Terminal Aerodrome Forecast
Issued by NWS Twin Cities, MN

Home | Current Version | Previous Version | Graphics & Text | Print | Product List | Glossary On
Versions: 1 2 3 4 5 6 7 8 9 10 11 12 13 14 15
843
FTUS43 KMPX 251732
TAFSTC
TAF
KSTC 251732Z 2518/2618 31016G25KT P6SM BKN050
     FM252100 31014G22KT P6SM FEW050
     FM260100 31006KT P6SM SCT100
     FM260600 31003KT P6SM SKC
     FM261500 34007KT P6SM FEW050=

USA.gov is the U.S. government's official web portal to all federal, state and local government web resources and services.